sensor_id;sensor_type;location;lat;lon;timestamp;P1;durP1;ratioP1;P2;durP2;ratioP2
43327;SDS011;28923;45.412;10.852;2023-09-30T04:04:14;1.83;;;1.63;;
43327;SDS011;28923;45.412;10.852;2023-09-30T04:06:40;1.85;;;1.67;;
43327;SDS011;28923;45.412;10.852;2023-09-30T04:09:08;1.40;;;1.30;;
43327;SDS011;28923;45.412;10.852;2023-09-30T04:11:37;2.22;;;1.75;;
43327;SDS011;28923;45.412;10.852;2023-09-30T04:14:06;1.65;;;1.50;;
43327;SDS011;28923;45.412;10.852;2023-09-30T04:16:33;2.20;;;1.48;;
43327;SDS011;28923;45.412;10.852;2023-09-30T04:18:58;1.83;;;1.73;;
43327;SDS011;28923;45.412;10.852;2023-09-30T04:21:24;1.50;;;1.40;;
43327;SDS011;28923;45.412;10.852;2023-09-30T04:23:50;1.70;;;1.60;;
43327;SDS011;28923;45.412;10.852;2023-09-30T04:26:15;1.95;;;1.50;;
43327;SDS011;28923;45.412;10.852;2023-09-30T04:28:41;1.90;;;1.80;;
43327;SDS011;28923;45.412;10.852;2023-09-30T04:31:06;1.40;;;1.30;;
43327;SDS011;28923;45.412;10.852;2023-09-30T04:33:33;1.50;;;1.40;;
43327;SDS011;28923;45.412;10.852;2023-09-30T04:36:00;1.83;;;1.73;;
43327;SDS011;28923;45.412;10.852;2023-09-30T04:38:25;1.58;;;1.48;;
43327;SDS011;28923;45.412;10.852;2023-09-30T04:40:51;1.63;;;1.52;;
43327;SDS011;28923;45.412;10.852;2023-09-30T04:43:17;1.65;;;1.55;;
43327;SDS011;28923;45.412;10.852;2023-09-30T04:45:43;1.67;;;1.58;;
43327;SDS011;28923;45.412;10.852;2023-09-30T04:48:08;1.73;;;1.63;;
43327;SDS011;28923;45.412;10.852;2023-09-30T04:50:34;1.60;;;1.50;;
43327;SDS011;28923;45.412;10.852;2023-09-30T04:52:59;1.70;;;1.60;;
43327;SDS011;28923;45.412;10.852;2023-09-30T04:55:25;1.63;;;1.52;;
43327;SDS011;28923;45.412;10.852;2023-09-30T04:57:51;1.60;;;1.50;;
43327;SDS011;28923;45.412;10.852;2023-09-30T05:00:17;1.80;;;1.70;;
43327;SDS011;28923;45.412;10.852;2023-09-30T05:02:44;1.75;;;1.58;;
43327;SDS011;28923;45.412;10.852;2023-09-30T05:05:10;1.52;;;1.42;;
43327;SDS011;28923;45.412;10.852;2023-09-30T05:07:36;1.70;;;1.60;;
43327;SDS011;28923;45.412;10.852;2023-09-30T05:10:01;2.17;;;1.63;;
43327;SDS011;28923;45.412;10.852;2023-09-30T05:12:30;1.58;;;1.48;;
43327;SDS011;28923;45.412;10.852;2023-09-30T05:14:55;6.47;;;1.80;;
43327;SDS011;28923;45.412;10.852;2023-09-30T05:17:21;2.53;;;1.90;;
43327;SDS011;28923;45.412;10.852;2023-09-30T05:19:47;3.25;;;1.60;;
43327;SDS011;28923;45.412;10.852;2023-09-30T05:22:12;4.75;;;2.00;;
43327;SDS011;28923;45.412;10.852;2023-09-30T05:24:37;2.15;;;1.60;;
43327;SDS011;28923;45.412;10.852;2023-09-30T05:27:03;3.55;;;1.90;;
43327;SDS011;28923;45.412;10.852;2023-09-30T05:29:29;4.32;;;1.70;;
43327;SDS011;28923;45.412;10.852;2023-09-30T05:31:54;4.05;;;2.35;;
43327;SDS011;28923;45.412;10.852;2023-09-30T05:34:20;5.35;;;1.85;;
43327;SDS011;28923;45.412;10.852;2023-09-30T05:36:45;2.55;;;1.70;;
43327;SDS011;28923;45.412;10.852;2023-09-30T05:39:10;5.93;;;2.00;;
43327;SDS011;28923;45.412;10.852;2023-09-30T05:41:37;2.10;;;1.80;;
43327;SDS011;28923;45.412;10.852;2023-09-30T05:44:03;3.65;;;1.60;;
43327;SDS011;28923;45.412;10.852;2023-09-30T05:46:30;5.38;;;1.92;;
43327;SDS011;28923;45.412;10.852;2023-09-30T05:48:56;3.03;;;1.75;;
43327;SDS011;28923;45.412;10.852;2023-09-30T05:51:21;2.92;;;1.90;;
43327;SDS011;28923;45.412;10.852;2023-09-30T05:53:47;2.30;;;1.60;;
43327;SDS011;28923;45.412;10.852;2023-09-30T05:56:13;2.83;;;1.90;;
43327;SDS011;28923;45.412;10.852;2023-09-30T05:58:40;4.05;;;2.00;;
43327;SDS011;28923;45.412;10.852;2023-09-30T06:01:09;4.57;;;1.92;;
43327;SDS011;28923;45.412;10.852;2023-09-30T06:03:39;1.98;;;1.58;;
43327;SDS011;28923;45.412;10.852;2023-09-30T06:06:11;2.70;;;1.75;;
43327;SDS011;28923;45.412;10.852;2023-09-30T06:08:38;4.28;;;1.80;;
43327;SDS011;28923;45.412;10.852;2023-09-30T06:11:03;2.65;;;1.52;;
43327;SDS011;28923;45.412;10.852;2023-09-30T06:13:28;3.30;;;1.73;;
43327;SDS011;28923;45.412;10.852;2023-09-30T06:15:56;2.95;;;2.05;;
43327;SDS011;28923;45.412;10.852;2023-09-30T06:18:22;2.97;;;1.77;;
43327;SDS011;28923;45.412;10.852;2023-09-30T06:20:48;3.00;;;1.63;;
43327;SDS011;28923;45.412;10.852;2023-09-30T06:23:14;4.03;;;1.80;;
43327;SDS011;28923;45.412;10.852;2023-09-30T06:25:41;3.00;;;1.70;;
43327;SDS011;28923;45.412;10.852;2023-09-30T06:28:06;2.15;;;1.77;;
43327;SDS011;28923;45.412;10.852;2023-09-30T06:30:33;3.22;;;1.58;;
43327;SDS011;28923;45.412;10.852;2023-09-30T06:32:59;2.08;;;1.80;;
43327;SDS011;28923;45.412;10.852;2023-09-30T06:35:25;2.15;;;1.60;;
43327;SDS011;28923;45.412;10.852;2023-09-30T06:37:51;5.13;;;1.70;;
43327;SDS011;28923;45.412;10.852;2023-09-30T06:40:16;2.88;;;1.90;;
43327;SDS011;28923;45.412;10.852;2023-09-30T06:42:42;3.47;;;1.75;;
43327;SDS011;28923;45.412;10.852;2023-09-30T06:45:08;1.75;;;1.52;;
43327;SDS011;28923;45.412;10.852;2023-09-30T06:47:36;1.85;;;1.67;;
43327;SDS011;28923;45.412;10.852;2023-09-30T06:50:07;2.15;;;1.60;;
43327;SDS011;28923;45.412;10.852;2023-09-30T06:52:36;2.70;;;1.80;;
43327;SDS011;28923;45.412;10.852;2023-09-30T06:55:02;3.92;;;1.70;;
43327;SDS011;28923;45.412;10.852;2023-09-30T06:57:31;2.70;;;1.90;;
43327;SDS011;28923;45.412;10.852;2023-09-30T06:59:56;2.03;;;1.80;;
43327;SDS011;28923;45.412;10.852;2023-09-30T07:02:21;2.00;;;1.80;;
43327;SDS011;28923;45.412;10.852;2023-09-30T07:04:47;2.42;;;1.80;;
43327;SDS011;28923;45.412;10.852;2023-09-30T07:07:14;1.55;;;1.40;;
43327;SDS011;28923;45.412;10.852;2023-09-30T07:09:42;1.88;;;1.73;;
43327;SDS011;28923;45.412;10.852;2023-09-30T07:12:07;3.90;;;3.05;;
43327;SDS011;28923;45.412;10.852;2023-09-30T07:14:33;3.97;;;3.35;;
43327;SDS011;28923;45.412;10.852;2023-09-30T07:16:59;4.07;;;3.25;;
43327;SDS011;28923;45.412;10.852;2023-09-30T07:19:25;4.43;;;3.75;;
43327;SDS011;28923;45.412;10.852;2023-09-30T07:21:50;4.28;;;3.80;;
43327;SDS011;28923;45.412;10.852;2023-09-30T07:24:16;3.33;;;2.83;;
43327;SDS011;28923;45.412;10.852;2023-09-30T07:26:41;6.97;;;3.35;;
43327;SDS011;28923;45.412;10.852;2023-09-30T07:29:08;3.30;;;3.00;;
43327;SDS011;28923;45.412;10.852;2023-09-30T07:31:36;4.07;;;3.00;;
43327;SDS011;28923;45.412;10.852;2023-09-30T07:34:02;5.57;;;3.05;;
43327;SDS011;28923;45.412;10.852;2023-09-30T07:36:27;6.20;;;3.13;;
43327;SDS011;28923;45.412;10.852;2023-09-30T07:38:53;3.75;;;3.10;;
43327;SDS011;28923;45.412;10.852;2023-09-30T07:41:19;4.32;;;2.80;;
43327;SDS011;28923;45.412;10.852;2023-09-30T07:43:44;3.65;;;2.25;;
43327;SDS011;28923;45.412;10.852;2023-09-30T07:46:10;3.35;;;2.45;;
43327;SDS011;28923;45.412;10.852;2023-09-30T07:48:35;2.70;;;2.08;;
43327;SDS011;28923;45.412;10.852;2023-09-30T07:51:01;4.05;;;2.63;;
43327;SDS011;28923;45.412;10.852;2023-09-30T07:53:27;4.40;;;2.60;;
43327;SDS011;28923;45.412;10.852;2023-09-30T07:55:52;3.17;;;2.67;;
43327;SDS011;28923;45.412;10.852;2023-09-30T07:58:19;4.35;;;2.50;;
43327;SDS011;28923;45.412;10.852;2023-09-30T08:00:45;2.88;;;2.47;;
43327;SDS011;28923;45.412;10.852;2023-09-30T08:03:10;6.55;;;2.72;;
43327;SDS011;28923;45.412;10.852;2023-09-30T08:05:37;3.30;;;2.60;;
43327;SDS011;28923;45.412;10.852;2023-09-30T08:08:02;4.35;;;2.50;;
43327;SDS011;28923;45.412;10.852;2023-09-30T08:10:29;3.55;;;2.50;;
43327;SDS011;28923;45.412;10.852;2023-09-30T08:12:55;5.22;;;2.50;;
43327;SDS011;28923;45.412;10.852;2023-09-30T08:15:24;2.55;;;2.35;;
43327;SDS011;28923;45.412;10.852;2023-09-30T08:17:49;3.83;;;2.75;;
43327;SDS011;28923;45.412;10.852;2023-09-30T08:20:15;2.88;;;2.47;;
43327;SDS011;28923;45.412;10.852;2023-09-30T08:22:42;3.75;;;2.70;;
43327;SDS011;28923;45.412;10.852;2023-09-30T08:25:08;3.80;;;2.78;;
43327;SDS011;28923;45.412;10.852;2023-09-30T08:27:33;5.13;;;3.50;;
43327;SDS011;28923;45.412;10.852;2023-09-30T08:30:00;5.30;;;3.40;;
43327;SDS011;28923;45.412;10.852;2023-09-30T08:32:34;11.18;;;4.30;;
43327;SDS011;28923;45.412;10.852;2023-09-30T08:35:00;6.00;;;4.68;;
43327;SDS011;28923;45.412;10.852;2023-09-30T08:37:26;7.88;;;4.10;;
43327;SDS011;28923;45.412;10.852;2023-09-30T08:39:51;8.82;;;4.65;;
43327;SDS011;28923;45.412;10.852;2023-09-30T08:42:17;6.88;;;4.35;;
43327;SDS011;28923;45.412;10.852;2023-09-30T08:44:44;6.85;;;3.72;;
43327;SDS011;28923;45.412;10.852;2023-09-30T08:47:09;6.70;;;3.67;;
43327;SDS011;28923;45.412;10.852;2023-09-30T08:49:39;6.70;;;4.40;;
43327;SDS011;28923;45.412;10.852;2023-09-30T08:52:05;5.57;;;4.50;;
43327;SDS011;28923;45.412;10.852;2023-09-30T08:54:31;7.80;;;4.20;;
43327;SDS011;28923;45.412;10.852;2023-09-30T08:56:57;6.22;;;4.15;;
43327;SDS011;28923;45.412;10.852;2023-09-30T08:59:23;7.75;;;3.95;;
43327;SDS011;28923;45.412;10.852;2023-09-30T09:01:50;6.93;;;4.70;;
43327;SDS011;28923;45.412;10.852;2023-09-30T09:04:17;7.32;;;4.40;;
43327;SDS011;28923;45.412;10.852;2023-09-30T09:06:42;6.00;;;3.58;;
43327;SDS011;28923;45.412;10.852;2023-09-30T09:11:42;6.30;;;4.50;;
43327;SDS011;28923;45.412;10.852;2023-09-30T09:14:07;8.65;;;4.60;;
43327;SDS011;28923;45.412;10.852;2023-09-30T09:16:33;6.00;;;4.85;;
43327;SDS011;28923;45.412;10.852;2023-09-30T09:18:59;7.18;;;4.63;;
43327;SDS011;28923;45.412;10.852;2023-09-30T09:21:24;7.40;;;4.13;;
43327;SDS011;28923;45.412;10.852;2023-09-30T09:23:53;11.57;;;4.90;;
43327;SDS011;28923;45.412;10.852;2023-09-30T09:26:31;7.18;;;4.43;;
43327;SDS011;28923;45.412;10.852;2023-09-30T09:29:00;5.10;;;4.43;;
43327;SDS011;28923;45.412;10.852;2023-09-30T09:31:27;6.60;;;4.63;;
43327;SDS011;28923;45.412;10.852;2023-09-30T09:33:53;9.40;;;5.30;;
43327;SDS011;28923;45.412;10.852;2023-09-30T09:36:20;7.72;;;5.35;;
43327;SDS011;28923;45.412;10.852;2023-09-30T09:41:13;7.85;;;4.68;;
43327;SDS011;28923;45.412;10.852;2023-09-30T09:43:40;10.60;;;5.15;;
43327;SDS011;28923;45.412;10.852;2023-09-30T09:46:09;7.00;;;4.60;;
43327;SDS011;28923;45.412;10.852;2023-09-30T09:48:36;6.53;;;4.32;;
43327;SDS011;28923;45.412;10.852;2023-09-30T09:51:02;9.43;;;4.88;;
43327;SDS011;28923;45.412;10.852;2023-09-30T09:53:29;9.95;;;4.45;;
43327;SDS011;28923;45.412;10.852;2023-09-30T09:55:56;7.18;;;4.80;;
43327;SDS011;28923;45.412;10.852;2023-09-30T09:58:22;9.57;;;4.80;;
43327;SDS011;28923;45.412;10.852;2023-09-30T10:00:50;7.25;;;4.88;;
43327;SDS011;28923;45.412;10.852;2023-09-30T10:03:17;5.80;;;4.43;;
43327;SDS011;28923;45.412;10.852;2023-09-30T10:05:42;10.35;;;4.57;;
43327;SDS011;28923;45.412;10.852;2023-09-30T10:08:13;4.97;;;4.38;;
43327;SDS011;28923;45.412;10.852;2023-09-30T10:10:39;8.57;;;4.70;;
43327;SDS011;28923;45.412;10.852;2023-09-30T10:13:06;5.80;;;4.45;;
43327;SDS011;28923;45.412;10.852;2023-09-30T10:20:29;7.30;;;4.68;;
43327;SDS011;28923;45.412;10.852;2023-09-30T10:23:17;10.52;;;4.72;;
43327;SDS011;28923;45.412;10.852;2023-09-30T10:25:45;9.38;;;4.35;;
43327;SDS011;28923;45.412;10.852;2023-09-30T10:33:36;5.90;;;4.20;;
43327;SDS011;28923;45.412;10.852;2023-09-30T10:36:02;5.47;;;4.30;;
43327;SDS011;28923;45.412;10.852;2023-09-30T10:41:00;5.47;;;3.97;;
43327;SDS011;28923;45.412;10.852;2023-09-30T10:43:31;5.38;;;4.28;;
43327;SDS011;28923;45.412;10.852;2023-09-30T10:45:57;6.85;;;4.45;;
43327;SDS011;28923;45.412;10.852;2023-09-30T10:53:26;5.00;;;4.13;;
43327;SDS011;28923;45.412;10.852;2023-09-30T10:55:58;6.50;;;4.10;;
43327;SDS011;28923;45.412;10.852;2023-09-30T10:58:44;6.75;;;4.15;;
43327;SDS011;28923;45.412;10.852;2023-09-30T11:01:11;5.55;;;4.15;;
43327;SDS011;28923;45.412;10.852;2023-09-30T11:03:39;4.72;;;4.20;;
43327;SDS011;28923;45.412;10.852;2023-09-30T11:06:10;7.07;;;4.10;;
43327;SDS011;28923;45.412;10.852;2023-09-30T11:08:38;5.30;;;4.10;;
43327;SDS011;28923;45.412;10.852;2023-09-30T11:11:05;7.45;;;4.05;;
43327;SDS011;28923;45.412;10.852;2023-09-30T11:13:31;5.38;;;4.15;;
43327;SDS011;28923;45.412;10.852;2023-09-30T11:16:00;6.72;;;4.07;;
43327;SDS011;28923;45.412;10.852;2023-09-30T11:18:27;8.82;;;4.13;;
43327;SDS011;28923;45.412;10.852;2023-09-30T11:21:02;6.20;;;4.43;;
43327;SDS011;28923;45.412;10.852;2023-09-30T11:23:28;6.45;;;4.10;;
43327;SDS011;28923;45.412;10.852;2023-09-30T11:25:54;7.47;;;3.95;;
43327;SDS011;28923;45.412;10.852;2023-09-30T11:28:19;5.07;;;4.43;;
43327;SDS011;28923;45.412;10.852;2023-09-30T11:30:59;5.53;;;4.13;;
43327;SDS011;28923;45.412;10.852;2023-09-30T11:33:24;7.80;;;4.05;;
43327;SDS011;28923;45.412;10.852;2023-09-30T11:36:00;6.63;;;4.53;;
43327;SDS011;28923;45.412;10.852;2023-09-30T11:38:27;6.72;;;3.97;;
43327;SDS011;28923;45.412;10.852;2023-09-30T11:40:59;6.93;;;4.53;;
43327;SDS011;28923;45.412;10.852;2023-09-30T11:43:27;5.97;;;4.22;;
43327;SDS011;28923;45.412;10.852;2023-09-30T11:46:03;8.20;;;4.30;;
43327;SDS011;28923;45.412;10.852;2023-09-30T11:48:29;6.43;;;4.40;;
43327;SDS011;28923;45.412;10.852;2023-09-30T11:50:54;6.47;;;4.15;;
43327;SDS011;28923;45.412;10.852;2023-09-30T11:53:24;11.07;;;4.93;;
43327;SDS011;28923;45.412;10.852;2023-09-30T11:55:51;12.65;;;5.10;;
43327;SDS011;28923;45.412;10.852;2023-09-30T11:58:20;10.77;;;4.57;;
43327;SDS011;28923;45.412;10.852;2023-09-30T12:00:46;8.25;;;4.45;;
43327;SDS011;28923;45.412;10.852;2023-09-30T12:03:12;7.65;;;4.50;;
43327;SDS011;28923;45.412;10.852;2023-09-30T12:05:39;7.43;;;4.10;;
43327;SDS011;28923;45.412;10.852;2023-09-30T12:08:04;8.43;;;4.43;;
43327;SDS011;28923;45.412;10.852;2023-09-30T12:10:31;7.03;;;4.90;;
43327;SDS011;28923;45.412;10.852;2023-09-30T12:12:57;6.85;;;4.22;;
43327;SDS011;28923;45.412;10.852;2023-09-30T12:15:22;7.25;;;4.22;;
43327;SDS011;28923;45.412;10.852;2023-09-30T12:17:48;6.47;;;4.45;;
43327;SDS011;28923;45.412;10.852;2023-09-30T12:20:15;5.70;;;4.13;;
43327;SDS011;28923;45.412;10.852;2023-09-30T12:22:43;6.30;;;4.40;;
43327;SDS011;28923;45.412;10.852;2023-09-30T12:25:08;9.85;;;4.68;;
43327;SDS011;28923;45.412;10.852;2023-09-30T12:27:35;6.85;;;4.30;;
43327;SDS011;28923;45.412;10.852;2023-09-30T12:30:00;7.18;;;4.50;;
43327;SDS011;28923;45.412;10.852;2023-09-30T12:32:32;8.10;;;4.60;;
43327;SDS011;28923;45.412;10.852;2023-09-30T12:34:58;6.93;;;4.45;;
43327;SDS011;28923;45.412;10.852;2023-09-30T12:37:24;7.05;;;4.00;;
43327;SDS011;28923;45.412;10.852;2023-09-30T12:39:49;4.72;;;4.13;;
43327;SDS011;28923;45.412;10.852;2023-09-30T12:42:15;4.90;;;4.40;;
43327;SDS011;28923;45.412;10.852;2023-09-30T12:44:44;4.50;;;3.90;;
43327;SDS011;28923;45.412;10.852;2023-09-30T12:47:18;6.25;;;4.22;;
43327;SDS011;28923;45.412;10.852;2023-09-30T12:49:44;7.50;;;4.22;;
43327;SDS011;28923;45.412;10.852;2023-09-30T12:52:09;7.00;;;4.20;;
43327;SDS011;28923;45.412;10.852;2023-09-30T12:54:36;7.53;;;4.43;;
43327;SDS011;28923;45.412;10.852;2023-09-30T12:57:03;9.82;;;4.50;;
43327;SDS011;28923;45.412;10.852;2023-09-30T12:59:29;8.45;;;4.25;;
43327;SDS011;28923;45.412;10.852;2023-09-30T13:01:55;7.10;;;4.25;;
43327;SDS011;28923;45.412;10.852;2023-09-30T13:04:21;6.07;;;4.03;;
43327;SDS011;28923;45.412;10.852;2023-09-30T13:06:48;9.80;;;4.45;;
43327;SDS011;28923;45.412;10.852;2023-09-30T13:09:15;8.88;;;4.93;;
43327;SDS011;28923;45.412;10.852;2023-09-30T13:11:45;7.28;;;4.65;;
43327;SDS011;28923;45.412;10.852;2023-09-30T13:14:11;7.10;;;4.75;;
43327;SDS011;28923;45.412;10.852;2023-09-30T13:16:37;5.22;;;4.53;;
43327;SDS011;28923;45.412;10.852;2023-09-30T13:19:02;11.27;;;4.40;;
43327;SDS011;28923;45.412;10.852;2023-09-30T13:21:28;6.13;;;4.72;;
43327;SDS011;28923;45.412;10.852;2023-09-30T13:23:54;5.78;;;4.40;;
43327;SDS011;28923;45.412;10.852;2023-09-30T13:26:19;8.70;;;4.70;;
43327;SDS011;28923;45.412;10.852;2023-09-30T13:28:47;5.72;;;4.55;;
43327;SDS011;28923;45.412;10.852;2023-09-30T13:31:13;8.65;;;5.10;;
43327;SDS011;28923;45.412;10.852;2023-09-30T13:33:39;8.25;;;4.30;;
43327;SDS011;28923;45.412;10.852;2023-09-30T13:36:05;6.50;;;4.32;;
43327;SDS011;28923;45.412;10.852;2023-09-30T13:38:31;5.97;;;4.20;;
43327;SDS011;28923;45.412;10.852;2023-09-30T13:40:58;6.35;;;4.68;;
43327;SDS011;28923;45.412;10.852;2023-09-30T13:43:27;6.40;;;4.38;;
43327;SDS011;28923;45.412;10.852;2023-09-30T13:45:52;6.65;;;4.93;;
43327;SDS011;28923;45.412;10.852;2023-09-30T13:48:18;7.63;;;4.50;;
43327;SDS011;28923;45.412;10.852;2023-09-30T13:50:43;5.07;;;4.25;;
43327;SDS011;28923;45.412;10.852;2023-09-30T13:53:10;5.82;;;4.47;;
43327;SDS011;28923;45.412;10.852;2023-09-30T13:55:38;6.57;;;4.68;;
43327;SDS011;28923;45.412;10.852;2023-09-30T13:58:04;8.20;;;4.68;;
43327;SDS011;28923;45.412;10.852;2023-09-30T14:00:30;6.40;;;4.43;;
43327;SDS011;28923;45.412;10.852;2023-09-30T14:02:56;5.57;;;4.57;;
43327;SDS011;28923;45.412;10.852;2023-09-30T14:05:23;6.50;;;4.75;;
43327;SDS011;28923;45.412;10.852;2023-09-30T14:07:51;10.40;;;4.97;;
43327;SDS011;28923;45.412;10.852;2023-09-30T14:10:17;5.13;;;4.32;;
43327;SDS011;28923;45.412;10.852;2023-09-30T14:12:44;6.93;;;4.63;;
43327;SDS011;28923;45.412;10.852;2023-09-30T14:15:09;5.25;;;4.63;;
43327;SDS011;28923;45.412;10.852;2023-09-30T14:17:35;7.28;;;5.03;;
43327;SDS011;28923;45.412;10.852;2023-09-30T14:20:03;6.55;;;4.80;;
43327;SDS011;28923;45.412;10.852;2023-09-30T14:22:31;6.55;;;4.70;;
43327;SDS011;28923;45.412;10.852;2023-09-30T14:24:56;6.28;;;4.40;;
43327;SDS011;28923;45.412;10.852;2023-09-30T14:27:22;5.55;;;4.90;;
43327;SDS011;28923;45.412;10.852;2023-09-30T14:29:47;5.93;;;4.47;;
43327;SDS011;28923;45.412;10.852;2023-09-30T14:32:13;6.78;;;4.60;;
43327;SDS011;28923;45.412;10.852;2023-09-30T14:34:39;8.30;;;5.03;;
43327;SDS011;28923;45.412;10.852;2023-09-30T14:37:04;6.28;;;4.53;;
43327;SDS011;28923;45.412;10.852;2023-09-30T14:39:31;8.43;;;5.13;;
43327;SDS011;28923;45.412;10.852;2023-09-30T14:41:57;5.97;;;4.63;;
43327;SDS011;28923;45.412;10.852;2023-09-30T14:44:23;6.03;;;4.47;;
43327;SDS011;28923;45.412;10.852;2023-09-30T14:46:49;6.18;;;4.82;;
43327;SDS011;28923;45.412;10.852;2023-09-30T14:49:16;6.13;;;4.75;;
43327;SDS011;28923;45.412;10.852;2023-09-30T14:51:41;6.68;;;4.93;;
43327;SDS011;28923;45.412;10.852;2023-09-30T14:54:07;7.60;;;4.65;;
43327;SDS011;28923;45.412;10.852;2023-09-30T14:56:32;8.35;;;4.78;;
43327;SDS011;28923;45.412;10.852;2023-09-30T14:59:02;6.30;;;4.95;;
43327;SDS011;28923;45.412;10.852;2023-09-30T15:01:29;8.50;;;5.10;;
43327;SDS011;28923;45.412;10.852;2023-09-30T15:03:54;5.68;;;5.07;;
43327;SDS011;28923;45.412;10.852;2023-09-30T15:06:20;8.98;;;4.65;;
43327;SDS011;28923;45.412;10.852;2023-09-30T15:08:48;6.55;;;4.95;;
43327;SDS011;28923;45.412;10.852;2023-09-30T15:11:13;5.63;;;4.93;;
43327;SDS011;28923;45.412;10.852;2023-09-30T15:13:42;9.10;;;5.50;;
43327;SDS011;28923;45.412;10.852;2023-09-30T15:16:19;6.30;;;5.03;;
43327;SDS011;28923;45.412;10.852;2023-09-30T15:18:45;8.52;;;5.20;;
43327;SDS011;28923;45.412;10.852;2023-09-30T15:21:12;8.18;;;5.22;;
43327;SDS011;28923;45.412;10.852;2023-09-30T15:23:38;7.28;;;5.07;;
43327;SDS011;28923;45.412;10.852;2023-09-30T15:26:04;6.05;;;4.90;;
43327;SDS011;28923;45.412;10.852;2023-09-30T15:28:31;7.65;;;5.13;;
43327;SDS011;28923;45.412;10.852;2023-09-30T15:30:58;6.88;;;5.38;;
43327;SDS011;28923;45.412;10.852;2023-09-30T15:33:24;18.00;;;5.85;;
43327;SDS011;28923;45.412;10.852;2023-09-30T15:35:50;6.38;;;5.03;;
43327;SDS011;28923;45.412;10.852;2023-09-30T15:38:15;6.45;;;4.80;;
43327;SDS011;28923;45.412;10.852;2023-09-30T15:40:51;7.85;;;5.20;;
43327;SDS011;28923;45.412;10.852;2023-09-30T15:43:19;7.30;;;5.57;;
43327;SDS011;28923;45.412;10.852;2023-09-30T15:45:48;6.90;;;5.13;;
43327;SDS011;28923;45.412;10.852;2023-09-30T15:48:13;7.82;;;5.10;;
43327;SDS011;28923;45.412;10.852;2023-09-30T15:50:42;6.60;;;5.15;;
43327;SDS011;28923;45.412;10.852;2023-09-30T15:53:07;6.25;;;5.28;;
43327;SDS011;28923;45.412;10.852;2023-09-30T15:55:33;5.35;;;4.82;;
43327;SDS011;28923;45.412;10.852;2023-09-30T15:57:58;6.47;;;5.20;;
43327;SDS011;28923;45.412;10.852;2023-09-30T16:00:24;5.93;;;5.07;;
43327;SDS011;28923;45.412;10.852;2023-09-30T16:02:51;6.35;;;5.03;;
43327;SDS011;28923;45.412;10.852;2023-09-30T16:05:19;6.63;;;5.28;;
43327;SDS011;28923;45.412;10.852;2023-09-30T16:07:45;6.50;;;5.30;;
43327;SDS011;28923;45.412;10.852;2023-09-30T16:10:10;5.15;;;4.65;;
43327;SDS011;28923;45.412;10.852;2023-09-30T16:12:36;6.50;;;5.50;;
43327;SDS011;28923;45.412;10.852;2023-09-30T16:15:04;8.40;;;5.60;;
43327;SDS011;28923;45.412;10.852;2023-09-30T16:17:34;7.85;;;5.78;;
43327;SDS011;28923;45.412;10.852;2023-09-30T16:19:59;8.30;;;5.15;;
43327;SDS011;28923;45.412;10.852;2023-09-30T16:22:25;7.38;;;4.90;;
43327;SDS011;28923;45.412;10.852;2023-09-30T16:24:50;6.93;;;5.40;;
43327;SDS011;28923;45.412;10.852;2023-09-30T16:27:16;6.22;;;4.88;;
43327;SDS011;28923;45.412;10.852;2023-09-30T16:29:42;6.78;;;5.10;;
43327;SDS011;28923;45.412;10.852;2023-09-30T16:32:10;7.35;;;5.03;;
43327;SDS011;28923;45.412;10.852;2023-09-30T16:34:35;6.53;;;5.30;;
43327;SDS011;28923;45.412;10.852;2023-09-30T16:37:01;5.93;;;5.10;;
43327;SDS011;28923;45.412;10.852;2023-09-30T16:39:27;9.57;;;5.15;;
43327;SDS011;28923;45.412;10.852;2023-09-30T16:41:53;6.05;;;5.38;;
43327;SDS011;28923;45.412;10.852;2023-09-30T16:44:18;8.30;;;5.50;;
43327;SDS011;28923;45.412;10.852;2023-09-30T16:46:45;11.30;;;4.85;;
43327;SDS011;28923;45.412;10.852;2023-09-30T16:49:10;6.10;;;4.65;;
43327;SDS011;28923;45.412;10.852;2023-09-30T16:51:36;7.72;;;4.82;;
43327;SDS011;28923;45.412;10.852;2023-09-30T16:54:01;7.13;;;5.15;;
43327;SDS011;28923;45.412;10.852;2023-09-30T16:56:27;6.75;;;4.97;;
43327;SDS011;28923;45.412;10.852;2023-09-30T16:58:53;8.05;;;4.65;;
43327;SDS011;28923;45.412;10.852;2023-09-30T17:01:18;9.15;;;5.35;;
43327;SDS011;28923;45.412;10.852;2023-09-30T17:03:46;7.55;;;4.90;;
43327;SDS011;28923;45.412;10.852;2023-09-30T17:06:11;10.10;;;5.18;;
43327;SDS011;28923;45.412;10.852;2023-09-30T17:08:37;9.30;;;4.80;;
43327;SDS011;28923;45.412;10.852;2023-09-30T17:11:03;7.65;;;5.10;;
43327;SDS011;28923;45.412;10.852;2023-09-30T17:13:29;6.13;;;5.25;;
43327;SDS011;28923;45.412;10.852;2023-09-30T17:15:55;6.18;;;4.70;;
43327;SDS011;28923;45.412;10.852;2023-09-30T17:18:21;7.68;;;4.95;;
43327;SDS011;28923;45.412;10.852;2023-09-30T17:20:46;6.07;;;4.63;;
43327;SDS011;28923;45.412;10.852;2023-09-30T17:23:12;9.90;;;5.47;;
43327;SDS011;28923;45.412;10.852;2023-09-30T17:25:38;8.00;;;4.97;;
43327;SDS011;28923;45.412;10.852;2023-09-30T17:28:04;8.35;;;5.70;;
43327;SDS011;28923;45.412;10.852;2023-09-30T17:30:30;7.80;;;5.15;;
43327;SDS011;28923;45.412;10.852;2023-09-30T17:32:56;12.25;;;5.78;;
43327;SDS011;28923;45.412;10.852;2023-09-30T17:35:21;9.95;;;4.90;;
43327;SDS011;28923;45.412;10.852;2023-09-30T17:37:47;7.82;;;5.07;;
43327;SDS011;28923;45.412;10.852;2023-09-30T17:40:12;8.15;;;4.68;;
43327;SDS011;28923;45.412;10.852;2023-09-30T17:42:38;6.53;;;4.78;;
43327;SDS011;28923;45.412;10.852;2023-09-30T17:45:05;6.07;;;4.60;;
43327;SDS011;28923;45.412;10.852;2023-09-30T17:47:30;5.55;;;4.05;;
43327;SDS011;28923;45.412;10.852;2023-09-30T17:49:56;6.72;;;4.50;;
43327;SDS011;28923;45.412;10.852;2023-09-30T17:52:21;5.13;;;4.32;;
43327;SDS011;28923;45.412;10.852;2023-09-30T17:54:47;5.85;;;3.97;;
43327;SDS011;28923;45.412;10.852;2023-09-30T17:57:13;5.90;;;4.13;;
43327;SDS011;28923;45.412;10.852;2023-09-30T17:59:40;5.60;;;4.32;;
43327;SDS011;28923;45.412;10.852;2023-09-30T18:02:05;9.93;;;4.32;;
43327;SDS011;28923;45.412;10.852;2023-09-30T18:04:31;8.77;;;4.00;;
43327;SDS011;28923;45.412;10.852;2023-09-30T18:06:56;6.20;;;4.20;;
43327;SDS011;28923;45.412;10.852;2023-09-30T18:09:22;4.63;;;4.15;;
43327;SDS011;28923;45.412;10.852;2023-09-30T18:11:48;7.43;;;4.32;;
43327;SDS011;28923;45.412;10.852;2023-09-30T18:14:16;5.15;;;4.15;;
43327;SDS011;28923;45.412;10.852;2023-09-30T18:16:43;6.40;;;4.10;;
43327;SDS011;28923;45.412;10.852;2023-09-30T18:19:09;5.72;;;4.00;;
43327;SDS011;28923;45.412;10.852;2023-09-30T18:21:35;4.10;;;3.70;;
43327;SDS011;28923;45.412;10.852;2023-09-30T18:24:00;7.93;;;3.95;;
43327;SDS011;28923;45.412;10.852;2023-09-30T18:26:26;4.85;;;3.72;;
43327;SDS011;28923;45.412;10.852;2023-09-30T18:28:51;6.22;;;3.92;;
43327;SDS011;28923;45.412;10.852;2023-09-30T18:31:18;5.32;;;3.63;;
43327;SDS011;28923;45.412;10.852;2023-09-30T18:33:43;4.88;;;3.90;;
43327;SDS011;28923;45.412;10.852;2023-09-30T18:36:09;4.70;;;3.50;;
43327;SDS011;28923;45.412;10.852;2023-09-30T18:38:37;5.57;;;3.40;;
43327;SDS011;28923;45.412;10.852;2023-09-30T18:41:12;4.65;;;3.72;;
43327;SDS011;28923;45.412;10.852;2023-09-30T18:43:39;5.50;;;3.72;;
43327;SDS011;28923;45.412;10.852;2023-09-30T18:46:08;5.53;;;3.60;;
43327;SDS011;28923;45.412;10.852;2023-09-30T18:48:40;8.23;;;3.70;;
43327;SDS011;28923;45.412;10.852;2023-09-30T18:51:06;5.22;;;3.58;;
43327;SDS011;28923;45.412;10.852;2023-09-30T18:53:35;7.45;;;3.60;;
43327;SDS011;28923;45.412;10.852;2023-09-30T18:56:02;7.47;;;3.53;;